Terminal Aerodrome Forecast
Issued by NWS

Home | Current Version | Previous Version | Text Only | Print | Product List | Glossary On
Versions: 1 2 3 4 5 6 7 8 9 10 11 12 13
000
FTAK31 PAJN 300537
TAFAPG
TAF
PAPG 300537Z 3006/0106 VRB05KT P6SM SCT025 BKN050
     FM301500 10008KT P6SM -RA SCT025 OVC050
     FM301800 11010G20KT P6SM -RA BKN025 OVC035
     FM302100 10015G25KT 3SM RA BR FEW006 BKN010 OVC020
      WS020/15045KT
      AMD LTD TO CLD VIS AND WIND TIL 301500=

USA.gov is the U.S. government's official web portal to all federal, state and local government web resources and services.